Kinsey, MT (59338)

12:24 PM MDT on August 29, 2015 (GMT -0600)
Wiley | | Change Station
CLOSE
Current Station
Airport
Location: Miles City,
Elevation: 2628 ft
Nearby Weather Stations

Elev 2628 ft 46.43 °N, 105.88 °W | Updated 31 minutes ago

Partly Cloudy
Partly Cloudy
88 °F
Feels Like 88 °F
N
8
Wind Variable Wind from SSE

Today
High -- | Low -- °F
--% Chance of Precip.
Yesterday
High -- | Low -- °F
Precip. -- in
6:19 AM 7:48 PM
Full, 100% visible
Pressure 29.84 in
Visibility 4.0 miles
Clouds Clear
Dew Point 48 °F
Humidity 25%
Rainfall 0.00 in
Snow Depth Not available.
UV 8 out of 12
Pollen 10.20 out of 12
Air Quality Not available.
Flu Activity Not available.
METAR KMLS 291753Z AUTO 15007KT 4SM HZ CLR 31/09 A2991 RMK AO2 SLP105 T03110089 10311 20144 58010
Pressure 29.84 in
Visibility 4.0 miles
Clouds Clear
Dew Point 48 °F
Humidity 25%
Rainfall 0.00 in
Snow Depth Not available.
UV 8 out of 12
Pollen 10.20 out of 12
Air Quality Not available.
Flu Activity Not available.
METAR KMLS 291753Z AUTO 15007KT 4SM HZ CLR 31/09 A2991 RMK AO2 SLP105 T03110089 10311 20144 58010

10-Day Weather Forecast

×

Almanac

Astronomy

Aug. 29, 2015 Rise Set
Actual Time
Civil Twilight
Nautical Twilight
Astronomical Twilight
Moon
Length of Visible Light
Length of Day
Tomorrow will be .
, % of the Moon is Illuminated

Today's Extremes

State Highs State Lows

Community

WunderPhotos

Upload Photos

1,850,755 photos uploaded!

WunderBlogs® & News

Nearby

Air Quality

  Air Quality AQ Index Pollutant
Not available.

Snow Depth

Station Depth Elevation

Earthquake Activity

City Distance Mag. Time & Date
Minimum magnitude displayed is 2.5.

Coastal Water Temperatures

Place Temperature

Stations

Nearby Weather Stations

Station Location Temp. Windchill Dew Point Humidity Wind Precip. Elev Updated Type